createdAt,value
2022-08-29T00:01:24.577Z,21.17
2022-08-29T00:03:55.276Z,21.17
2022-08-29T00:06:24.021Z,21.08
2022-08-29T00:08:53.218Z,21.12
2022-08-29T00:11:21.787Z,21.08
2022-08-29T00:13:50.094Z,21.03
2022-08-29T00:16:18.449Z,20.94
2022-08-29T00:18:46.951Z,20.93
2022-08-29T00:21:15.070Z,20.91
2022-08-29T00:23:45.877Z,20.91
2022-08-29T00:26:15.290Z,20.90
2022-08-29T00:28:43.589Z,20.90
2022-08-29T00:31:11.483Z,20.88
2022-08-29T00:33:39.566Z,20.87
2022-08-29T00:36:09.554Z,20.86
2022-08-29T00:38:38.085Z,20.85
2022-08-29T00:41:06.639Z,20.85
2022-08-29T00:43:38.956Z,20.87
2022-08-29T00:46:20.322Z,20.86
2022-08-29T00:48:54.844Z,20.86
2022-08-29T00:51:23.942Z,20.85
2022-08-29T00:53:55.559Z,20.86
2022-08-29T00:56:23.619Z,20.84
2022-08-29T00:58:55.372Z,20.81
2022-08-29T01:01:24.377Z,20.81
2022-08-29T01:03:53.275Z,20.79
2022-08-29T01:06:21.748Z,20.76
2022-08-29T01:08:57.754Z,20.75
2022-08-29T01:11:46.592Z,20.71
2022-08-29T01:14:16.776Z,20.71
2022-08-29T01:16:45.782Z,20.67
2022-08-29T01:19:24.094Z,20.67
2022-08-29T01:22:03.267Z,20.65
2022-08-29T01:24:39.232Z,20.58
2022-08-29T01:27:07.793Z,20.60
2022-08-29T01:29:36.132Z,20.58
2022-08-29T01:32:05.706Z,20.54
2022-08-29T01:34:33.749Z,20.49
2022-08-29T01:37:03.297Z,20.47
2022-08-29T01:39:35.422Z,20.39
2022-08-29T01:42:05.831Z,20.39
2022-08-29T01:44:34.184Z,20.34
2022-08-29T01:47:03.606Z,20.35
2022-08-29T01:49:33.503Z,20.33
2022-08-29T01:52:02.310Z,20.31
2022-08-29T01:54:31.272Z,20.27
2022-08-29T01:57:01.527Z,20.21
2022-08-29T01:59:31.357Z,20.22
2022-08-29T02:02:03.880Z,20.23
2022-08-29T02:04:32.799Z,20.17
2022-08-29T02:07:01.082Z,20.11
2022-08-29T02:09:29.556Z,20.08
2022-08-29T02:11:59.413Z,20.06
2022-08-29T02:14:29.910Z,20.05
2022-08-29T02:16:57.713Z,20.04
2022-08-29T02:19:25.815Z,20.03
2022-08-29T02:21:53.656Z,19.99
2022-08-29T02:24:25.721Z,19.94
2022-08-29T02:26:55.589Z,19.89
2022-08-29T02:29:24.084Z,19.85
2022-08-29T02:31:53.628Z,19.84
2022-08-29T02:34:21.585Z,19.82
2022-08-29T02:36:49.453Z,19.79
2022-08-29T02:39:18.596Z,19.78
2022-08-29T02:41:46.905Z,19.76
2022-08-29T02:44:14.951Z,19.76
2022-08-29T02:46:43.111Z,19.75
2022-08-29T02:49:12.350Z,19.77
2022-08-29T02:51:42.453Z,19.76
2022-08-29T02:54:10.370Z,19.75
2022-08-29T02:56:38.217Z,19.76
2022-08-29T02:59:06.428Z,19.76
2022-08-29T03:01:34.272Z,19.76
2022-08-29T03:04:02.208Z,19.74
2022-08-29T03:06:31.731Z,19.74
2022-08-29T03:08:59.540Z,19.67
2022-08-29T03:11:28.675Z,19.67
2022-08-29T03:13:57.475Z,19.65
2022-08-29T03:16:26.152Z,19.60
2022-08-29T03:18:54.070Z,19.55
2022-08-29T03:21:25.555Z,19.48
2022-08-29T03:23:56.215Z,19.46
2022-08-29T03:26:24.744Z,19.35
2022-08-29T03:28:53.258Z,19.33
2022-08-29T03:31:21.853Z,19.29
2022-08-29T03:33:49.760Z,19.28
2022-08-29T03:36:17.953Z,19.28
2022-08-29T03:38:46.927Z,19.29
2022-08-29T03:41:23.872Z,19.33
2022-08-29T03:43:52.535Z,19.34
2022-08-29T03:46:20.884Z,19.35
2022-08-29T03:48:49.548Z,19.37
2022-08-29T03:51:17.981Z,19.39
2022-08-29T03:53:46.327Z,19.40
2022-08-29T03:56:18.448Z,19.37
2022-08-29T03:58:52.893Z,19.34
2022-08-29T04:01:22.513Z,19.30
2022-08-29T04:03:51.247Z,19.28
2022-08-29T04:06:19.411Z,19.25
2022-08-29T04:08:48.327Z,19.18
2022-08-29T04:11:17.360Z,19.20
2022-08-29T04:13:45.428Z,19.19
2022-08-29T04:16:16.454Z,19.17
2022-08-29T04:18:44.759Z,19.11
2022-08-29T04:21:13.032Z,19.08
2022-08-29T04:23:41.740Z,19.04
2022-08-29T04:26:35.489Z,19.05
2022-08-29T04:29:02.879Z,19.04
2022-08-29T04:31:32.223Z,19.00
2022-08-29T04:34:00.091Z,18.99
2022-08-29T04:36:28.448Z,18.99
2022-08-29T04:38:56.326Z,18.98
2022-08-29T04:41:24.139Z,18.96
2022-08-29T04:43:52.380Z,18.93
2022-08-29T04:46:23.942Z,18.89
2022-08-29T04:48:54.812Z,18.87
2022-08-29T04:51:23.191Z,18.77
2022-08-29T04:53:53.252Z,18.77
2022-08-29T04:56:22.323Z,18.71
2022-08-29T04:58:52.061Z,18.70
2022-08-29T05:01:22.654Z,18.62
2022-08-29T05:03:51.973Z,18.58
2022-08-29T05:06:23.890Z,18.55
2022-08-29T05:08:59.003Z,18.51
2022-08-29T05:11:29.908Z,18.52
2022-08-29T05:13:58.442Z,18.53
2022-08-29T05:16:26.537Z,18.54
2022-08-29T05:18:55.428Z,18.54
2022-08-29T05:21:35.353Z,18.56
2022-08-29T05:24:05.701Z,18.53
2022-08-29T05:26:36.973Z,18.51
2022-08-29T05:29:05.198Z,18.52
2022-08-29T05:31:37.765Z,18.53
2022-08-29T05:34:16.332Z,18.54
2022-08-29T05:36:55.900Z,18.59
2022-08-29T05:39:23.710Z,18.57
2022-08-29T05:41:51.564Z,18.60
2022-08-29T05:44:19.657Z,18.61
2022-08-29T05:46:48.653Z,18.67
2022-08-29T05:49:16.539Z,18.70
2022-08-29T05:51:44.653Z,18.74
2022-08-29T05:54:13.880Z,18.79
2022-08-29T05:56:43.116Z,18.82
2022-08-29T05:59:12.544Z,18.87
2022-08-29T06:01:41.373Z,18.90
2022-08-29T06:04:09.595Z,18.97
2022-08-29T06:06:37.545Z,18.99
2022-08-29T06:09:05.836Z,19.04
2022-08-29T06:11:35.694Z,19.06
2022-08-29T06:14:03.545Z,19.05
2022-08-29T06:16:32.391Z,19.03
2022-08-29T06:19:01.580Z,19.05
2022-08-29T06:21:30.435Z,18.99
2022-08-29T06:23:58.296Z,18.98
2022-08-29T06:26:26.405Z,19.00
2022-08-29T06:28:55.663Z,19.01
2022-08-29T06:31:28.159Z,18.99
2022-08-29T06:33:58.548Z,18.86
2022-08-29T06:36:28.026Z,18.86
2022-08-29T06:38:56.655Z,18.88
2022-08-29T06:41:25.054Z,18.86
2022-08-29T06:43:53.298Z,18.89
2022-08-29T06:46:25.425Z,18.86
2022-08-29T06:48:54.334Z,18.83
2022-08-29T06:51:22.553Z,18.85
2022-08-29T06:53:51.058Z,18.84
2022-08-29T06:56:20.546Z,18.91
2022-08-29T06:58:48.544Z,18.91
2022-08-29T07:01:18.793Z,18.83
2022-08-29T07:03:49.047Z,18.95
2022-08-29T07:06:17.759Z,18.99
2022-08-29T07:08:55.512Z,19.03
2022-08-29T07:11:24.924Z,19.05
2022-08-29T07:13:52.885Z,19.04
2022-08-29T07:16:20.902Z,19.12
2022-08-29T07:18:52.322Z,19.01
2022-08-29T07:21:22.030Z,18.95
2022-08-29T07:23:49.941Z,19.11
2022-08-29T07:26:21.701Z,19.06
2022-08-29T07:28:50.957Z,19.15
2022-08-29T07:31:19.824Z,19.23
2022-08-29T07:33:48.274Z,19.37
2022-08-29T07:36:31.797Z,19.49
2022-08-29T07:38:59.759Z,19.57
2022-08-29T07:41:28.588Z,19.61
2022-08-29T07:43:56.550Z,19.57
2022-08-29T07:46:25.715Z,19.65
2022-08-29T07:48:54.269Z,19.79
2022-08-29T07:51:24.449Z,19.87
2022-08-29T07:53:54.165Z,19.92
2022-08-29T07:56:27.752Z,19.92
2022-08-29T07:58:56.165Z,19.99
2022-08-29T08:01:24.820Z,20.04
2022-08-29T08:03:53.533Z,20.11
2022-08-29T08:06:23.426Z,20.17
2022-08-29T08:08:53.835Z,20.09
2022-08-29T08:11:23.099Z,20.07
2022-08-29T08:13:52.340Z,20.24
2022-08-29T08:16:22.304Z,20.28
2022-08-29T08:18:51.021Z,20.33
2022-08-29T08:21:18.917Z,20.48
2022-08-29T08:23:47.518Z,20.45
2022-08-29T08:26:17.637Z,20.57
2022-08-29T08:28:46.183Z,20.63
2022-08-29T08:31:16.680Z,20.52
2022-08-29T08:33:45.498Z,20.66
2022-08-29T08:36:15.810Z,20.57
2022-08-29T08:38:43.866Z,20.71
2022-08-29T08:41:27.156Z,20.81
2022-08-29T08:43:58.589Z,20.72
2022-08-29T08:46:31.857Z,20.83
2022-08-29T08:49:03.585Z,20.90
2022-08-29T08:51:36.101Z,21.02
2022-08-29T08:54:09.495Z,21.04
2022-08-29T08:56:43.468Z,21.10
2022-08-29T08:59:17.045Z,21.11
2022-08-29T09:01:49.163Z,21.06
2022-08-29T09:04:31.793Z,21.23
2022-08-29T09:07:11.301Z,21.35
2022-08-29T09:09:55.348Z,21.31
2022-08-29T09:12:38.978Z,21.35
2022-08-29T09:15:11.137Z,21.48
2022-08-29T09:17:45.380Z,21.51
2022-08-29T09:20:17.013Z,21.51
2022-08-29T09:22:59.595Z,21.58
2022-08-29T09:25:29.712Z,21.63
2022-08-29T09:27:59.477Z,21.60
2022-08-29T09:30:29.561Z,21.70
2022-08-29T09:33:01.927Z,21.72
2022-08-29T09:35:34.935Z,21.73
2022-08-29T09:38:06.256Z,21.65
2022-08-29T09:40:50.224Z,21.79
2022-08-29T09:43:26.294Z,21.90
2022-08-29T09:46:20.938Z,21.90
2022-08-29T09:48:51.240Z,21.91
2022-08-29T09:51:26.098Z,22.03
2022-08-29T09:53:56.148Z,22.06
2022-08-29T09:56:26.832Z,22.26
2022-08-29T09:59:06.200Z,22.40
2022-08-29T10:01:36.490Z,22.53
2022-08-29T10:04:08.062Z,22.70
2022-08-29T10:06:44.333Z,22.75
2022-08-29T10:09:26.384Z,22.89
2022-08-29T10:12:00.550Z,23.03
2022-08-29T10:14:35.691Z,23.09
2022-08-29T10:17:21.867Z,23.08
2022-08-29T10:19:50.453Z,23.05
2022-08-29T10:22:29.281Z,23.06
2022-08-29T10:25:04.940Z,22.94
2022-08-29T10:27:43.326Z,22.80
2022-08-29T10:30:17.598Z,22.89
2022-08-29T10:33:04.590Z,22.89
2022-08-29T10:35:40.218Z,22.76
2022-08-29T10:38:20.994Z,22.81
2022-08-29T10:40:52.189Z,23.00
2022-08-29T10:43:34.878Z,22.98
2022-08-29T10:46:16.591Z,23.22
2022-08-29T10:48:55.261Z,23.14
2022-08-29T10:51:31.454Z,23.19
2022-08-29T10:54:05.708Z,23.28
2022-08-29T10:56:40.288Z,23.30
2022-08-29T10:59:18.595Z,23.30
2022-08-29T11:01:54.009Z,23.39
2022-08-29T11:04:23.605Z,23.39
2022-08-29T11:06:58.167Z,23.34
2022-08-29T11:09:30.455Z,23.23
2022-08-29T11:12:08.038Z,23.42
2022-08-29T11:14:41.387Z,23.60
2022-08-29T11:17:16.616Z,23.71
2022-08-29T11:19:54.633Z,23.74
2022-08-29T11:22:27.281Z,23.89
2022-08-29T11:25:01.698Z,23.89
2022-08-29T11:27:39.168Z,23.92
2022-08-29T11:30:11.518Z,24.00
2022-08-29T11:32:48.045Z,24.09
2022-08-29T11:35:21.616Z,23.97
2022-08-29T11:38:25.208Z,23.88
2022-08-29T11:41:32.827Z,24.00
2022-08-29T11:44:20.543Z,24.09
2022-08-29T11:46:53.566Z,24.13
2022-08-29T11:49:38.010Z,24.04
2022-08-29T11:52:26.215Z,24.11
2022-08-29T11:55:16.234Z,24.23
2022-08-29T11:57:51.311Z,24.19
2022-08-29T12:00:34.904Z,24.27
2022-08-29T12:03:07.222Z,24.39
2022-08-29T12:05:58.159Z,24.43
2022-08-29T12:08:37.202Z,24.49
2022-08-29T12:11:07.394Z,24.54
2022-08-29T12:14:01.439Z,24.56
2022-08-29T12:16:53.545Z,24.59
2022-08-29T12:19:47.116Z,24.62
2022-08-29T12:22:49.147Z,24.70
2022-08-29T12:25:55.255Z,24.75
2022-08-29T12:28:49.272Z,24.83
2022-08-29T12:31:34.741Z,24.82
2022-08-29T12:34:24.122Z,24.75
2022-08-29T12:37:21.914Z,24.76
2022-08-29T12:40:09.670Z,24.71
2022-08-29T12:42:46.123Z,24.68
2022-08-29T12:45:18.963Z,24.58
2022-08-29T12:47:50.123Z,24.72
2022-08-29T12:50:22.557Z,24.79
2022-08-29T12:53:02.166Z,24.81
2022-08-29T12:55:35.685Z,24.89
2022-08-29T12:58:03.827Z,24.93
2022-08-29T13:00:34.085Z,24.94
2022-08-29T13:03:15.159Z,24.96
2022-08-29T13:05:43.628Z,25.02
2022-08-29T13:08:14.737Z,24.88
2022-08-29T13:10:56.483Z,25.06
2022-08-29T13:13:26.161Z,25.13
2022-08-29T13:15:55.843Z,25.22
2022-08-29T13:18:24.707Z,25.32
2022-08-29T13:21:06.931Z,25.40
2022-08-29T13:23:37.366Z,25.46
2022-08-29T13:26:18.311Z,25.28
2022-08-29T13:28:48.817Z,25.38
2022-08-29T13:31:33.649Z,25.29
2022-08-29T13:34:17.731Z,25.41
2022-08-29T13:36:50.488Z,25.40
2022-08-29T13:39:26.655Z,25.33
2022-08-29T13:42:22.338Z,25.41
2022-08-29T13:45:09.009Z,25.44
2022-08-29T13:47:49.433Z,25.53
2022-08-29T13:50:17.534Z,25.54
2022-08-29T13:52:45.424Z,25.60
2022-08-29T13:55:13.477Z,25.61
2022-08-29T13:57:46.758Z,25.60
2022-08-29T14:00:16.029Z,25.43
2022-08-29T14:02:45.619Z,25.49
2022-08-29T14:05:14.621Z,25.51
2022-08-29T14:07:44.900Z,25.55
2022-08-29T14:10:15.438Z,25.59
2022-08-29T14:12:45.108Z,25.50
2022-08-29T14:15:17.921Z,25.62
2022-08-29T14:17:48.257Z,25.62
2022-08-29T14:20:17.961Z,25.63
2022-08-29T14:22:47.005Z,25.66
2022-08-29T14:25:17.446Z,25.72
2022-08-29T14:27:47.413Z,25.71
2022-08-29T14:30:18.554Z,25.76
2022-08-29T14:32:47.069Z,25.79
2022-08-29T14:35:25.878Z,25.80
2022-08-29T14:37:55.634Z,25.79
2022-08-29T14:40:25.617Z,25.80
2022-08-29T14:42:55.572Z,25.79
2022-08-29T14:45:23.456Z,25.81
2022-08-29T14:47:51.282Z,25.85
2022-08-29T14:50:19.583Z,25.87
2022-08-29T14:52:47.613Z,25.86
2022-08-29T14:55:15.587Z,25.88
2022-08-29T14:57:44.043Z,25.93
2022-08-29T15:00:17.562Z,25.86
2022-08-29T15:02:45.659Z,25.91
2022-08-29T15:05:13.913Z,25.86
2022-08-29T15:07:42.554Z,25.88
2022-08-29T15:10:12.421Z,25.86
2022-08-29T15:12:40.696Z,25.92
2022-08-29T15:15:10.663Z,25.98
2022-08-29T15:17:40.773Z,25.95
2022-08-29T15:22:57.823Z,25.85
2022-08-29T15:25:26.213Z,25.97
2022-08-29T15:27:54.077Z,26.00
2022-08-29T15:30:25.247Z,25.90
2022-08-29T15:32:54.575Z,25.89
2022-08-29T15:35:22.757Z,25.88
2022-08-29T15:37:50.886Z,25.95
2022-08-29T15:40:19.587Z,25.90
2022-08-29T15:42:47.552Z,25.89
2022-08-29T15:45:15.691Z,25.88
2022-08-29T15:47:46.412Z,25.95
2022-08-29T15:50:15.918Z,25.90
2022-08-29T15:52:43.853Z,25.87
2022-08-29T15:55:12.792Z,25.90
2022-08-29T15:57:51.232Z,25.75
2022-08-29T16:00:30.326Z,25.77
2022-08-29T16:03:01.386Z,25.75
2022-08-29T16:05:31.440Z,25.73
2022-08-29T16:07:59.624Z,25.69
2022-08-29T16:10:27.936Z,25.69
2022-08-29T16:12:56.097Z,25.71
2022-08-29T16:15:24.252Z,25.78
2022-08-29T16:17:52.821Z,25.80
2022-08-29T16:20:20.836Z,25.87
2022-08-29T16:22:50.186Z,25.89
2022-08-29T16:25:18.186Z,25.92
2022-08-29T16:27:46.033Z,25.89
2022-08-29T16:30:14.569Z,25.85
2022-08-29T16:32:42.625Z,25.90
2022-08-29T16:35:11.993Z,25.84
2022-08-29T16:37:39.973Z,25.78
2022-08-29T16:40:11.229Z,25.70
2022-08-29T16:42:39.525Z,25.66
2022-08-29T16:45:09.822Z,25.72
2022-08-29T16:47:38.504Z,25.78
2022-08-29T16:50:08.621Z,25.72
2022-08-29T16:52:36.674Z,25.78
2022-08-29T16:55:05.834Z,25.81
2022-08-29T16:57:35.738Z,25.82
2022-08-29T17:00:05.260Z,25.85
2022-08-29T17:02:33.089Z,25.78
2022-08-29T17:05:01.082Z,25.85
2022-08-29T17:07:33.377Z,25.87
2022-08-29T17:10:01.935Z,25.90
2022-08-29T17:12:29.771Z,25.93
2022-08-29T17:14:57.767Z,25.98
2022-08-29T17:17:25.591Z,25.99
2022-08-29T17:19:53.380Z,25.97
2022-08-29T17:22:21.465Z,25.94
2022-08-29T17:24:49.502Z,25.97
2022-08-29T17:27:21.308Z,25.94
2022-08-29T17:29:49.961Z,25.89
2022-08-29T17:32:19.524Z,25.81
2022-08-29T17:34:47.984Z,25.81
2022-08-29T17:37:16.109Z,25.81
2022-08-29T17:39:43.943Z,25.83
2022-08-29T17:42:12.720Z,25.83
2022-08-29T17:44:42.309Z,25.80
2022-08-29T17:47:10.158Z,25.77
2022-08-29T17:49:39.652Z,25.74
2022-08-29T17:52:07.522Z,25.72
2022-08-29T17:54:35.575Z,25.71
2022-08-29T17:57:04.165Z,25.70
2022-08-29T17:59:33.948Z,25.67
2022-08-29T18:02:02.566Z,25.65
2022-08-29T18:04:30.823Z,25.58
2022-08-29T18:07:00.285Z,25.52
2022-08-29T18:09:29.389Z,25.42
2022-08-29T18:11:58.477Z,25.46
2022-08-29T18:14:27.786Z,25.47
2022-08-29T18:16:56.499Z,25.45
2022-08-29T18:19:25.446Z,25.44
2022-08-29T18:21:55.080Z,25.45
2022-08-29T18:24:24.432Z,25.42
2022-08-29T18:26:52.821Z,25.36
2022-08-29T18:29:21.260Z,25.31
2022-08-29T18:31:49.864Z,25.32
2022-08-29T18:34:19.055Z,25.30
2022-08-29T18:36:48.468Z,25.28
2022-08-29T18:39:19.350Z,25.26
2022-08-29T18:41:48.911Z,25.25
2022-08-29T18:44:17.102Z,25.21
2022-08-29T18:46:48.179Z,25.16
2022-08-29T18:49:17.299Z,25.14
2022-08-29T18:51:45.355Z,25.11
2022-08-29T18:54:17.457Z,25.09
2022-08-29T18:56:48.484Z,25.06
2022-08-29T18:59:16.912Z,25.05
2022-08-29T19:01:45.147Z,25.01
2022-08-29T19:04:13.238Z,24.95
2022-08-29T19:06:41.560Z,24.89
2022-08-29T19:09:09.588Z,24.85
2022-08-29T19:11:37.831Z,24.82
2022-08-29T19:14:07.398Z,24.77
2022-08-29T19:16:36.996Z,24.72
2022-08-29T19:19:05.459Z,24.69
2022-08-29T19:21:40.117Z,24.65
2022-08-29T19:24:08.438Z,24.62
2022-08-29T19:26:40.063Z,24.60
2022-08-29T19:29:14.396Z,24.59
2022-08-29T19:31:44.863Z,24.52
2022-08-29T19:34:13.496Z,24.52
2022-08-29T19:36:43.026Z,24.50
2022-08-29T19:39:15.881Z,24.48
2022-08-29T19:41:44.117Z,24.45
2022-08-29T19:44:14.434Z,24.43
2022-08-29T19:46:48.658Z,24.41
2022-08-29T19:49:17.360Z,24.36
2022-08-29T19:51:45.510Z,24.34
2022-08-29T19:54:13.768Z,24.29
2022-08-29T19:56:46.600Z,24.26
2022-08-29T19:59:17.346Z,24.22
2022-08-29T20:01:46.877Z,24.20
2022-08-29T20:04:15.295Z,24.18
2022-08-29T20:06:46.312Z,24.13
2022-08-29T20:09:16.910Z,24.13
2022-08-29T20:11:45.156Z,24.09
2022-08-29T20:14:14.386Z,24.07
2022-08-29T20:16:44.719Z,24.03
2022-08-29T20:19:13.072Z,24.01
2022-08-29T20:21:43.509Z,23.94
2022-08-29T20:24:15.736Z,23.93
2022-08-29T20:26:49.792Z,23.88
2022-08-29T20:29:18.695Z,23.84
2022-08-29T20:31:48.656Z,23.84
2022-08-29T20:34:16.903Z,23.80
2022-08-29T20:37:02.776Z,23.76
2022-08-29T20:39:30.885Z,23.78
2022-08-29T20:42:02.183Z,23.75
2022-08-29T20:44:34.143Z,23.69
2022-08-29T20:47:04.160Z,23.64
2022-08-29T20:49:32.760Z,23.58
2022-08-29T20:52:01.938Z,23.56
2022-08-29T20:54:31.026Z,23.51
2022-08-29T20:56:59.640Z,23.46
2022-08-29T20:59:31.465Z,23.44
2022-08-29T21:02:05.368Z,23.42
2022-08-29T21:04:51.088Z,23.37
2022-08-29T21:07:20.785Z,23.34
2022-08-29T21:09:50.535Z,23.32
2022-08-29T21:12:19.615Z,23.24
2022-08-29T21:14:48.649Z,23.26
2022-08-29T21:17:19.398Z,23.23
2022-08-29T21:19:48.047Z,23.19
2022-08-29T21:22:16.518Z,23.17
2022-08-29T21:24:45.090Z,23.12
2022-08-29T21:27:13.483Z,23.09
2022-08-29T21:29:43.631Z,23.06
2022-08-29T21:32:11.621Z,23.01
2022-08-29T21:34:41.684Z,22.99
2022-08-29T21:37:09.827Z,22.95
2022-08-29T21:39:38.156Z,22.92
2022-08-29T21:42:07.158Z,22.89
2022-08-29T21:44:35.989Z,22.85
2022-08-29T21:47:04.465Z,22.83
2022-08-29T21:49:32.642Z,22.79
2022-08-29T21:52:02.298Z,22.75
2022-08-29T21:54:30.395Z,22.72
2022-08-29T21:56:58.992Z,22.70
2022-08-29T21:59:27.967Z,22.68
2022-08-29T22:01:56.064Z,22.65
2022-08-29T22:04:28.585Z,22.59
2022-08-29T22:06:58.367Z,22.57
2022-08-29T22:09:30.238Z,22.55
2022-08-29T22:11:59.335Z,22.52
2022-08-29T22:14:48.064Z,22.49
2022-08-29T22:17:16.205Z,22.45
2022-08-29T22:19:44.402Z,22.44
2022-08-29T22:22:12.918Z,22.43
2022-08-29T22:24:42.569Z,22.42
2022-08-29T22:27:10.861Z,22.42
2022-08-29T22:29:39.041Z,22.40
2022-08-29T22:32:07.278Z,22.35
2022-08-29T22:34:36.135Z,22.34
2022-08-29T22:37:04.439Z,22.30
2022-08-29T22:39:32.842Z,22.27
2022-08-29T22:42:02.667Z,22.24
2022-08-29T22:44:59.763Z,22.23
2022-08-29T22:47:20.792Z,22.23
2022-08-29T22:49:48.970Z,22.23
2022-08-29T22:52:17.127Z,22.22
2022-08-29T22:54:45.807Z,22.20
2022-08-29T22:57:17.001Z,22.20
2022-08-29T22:59:47.851Z,22.20
2022-08-29T23:02:17.123Z,22.19
2022-08-29T23:04:45.793Z,22.19
2022-08-29T23:07:15.077Z,22.17
2022-08-29T23:09:45.036Z,22.16
2022-08-29T23:12:15.523Z,22.15
2022-08-29T23:14:46.782Z,22.11
2022-08-29T23:17:17.186Z,22.09
2022-08-29T23:19:46.067Z,22.09
2022-08-29T23:22:15.214Z,22.06
2022-08-29T23:24:57.675Z,22.05
2022-08-29T23:27:29.684Z,22.05
2022-08-29T23:29:58.210Z,22.02
2022-08-29T23:32:26.619Z,22.01
2022-08-29T23:34:55.170Z,21.97
2022-08-29T23:37:23.901Z,21.93
2022-08-29T23:39:52.076Z,21.95
2022-08-29T23:42:20.170Z,21.93
2022-08-29T23:44:49.940Z,21.92
2022-08-29T23:47:17.976Z,21.90
2022-08-29T23:49:46.572Z,21.88
2022-08-29T23:52:15.127Z,21.88
2022-08-29T23:54:43.391Z,21.86
2022-08-29T23:57:12.125Z,21.84
2022-08-29T23:59:57.851Z,21.82
